sensor_id;sensor_type;location;lat;lon;timestamp;P1;durP1;ratioP1;P2;durP2;ratioP2
15449;SDS011;7826;49.784;9.934;2023-03-13T00:01:32;9.47;;;1.90;;
15449;SDS011;7826;49.784;9.934;2023-03-13T00:03:59;6.13;;;2.30;;
15449;SDS011;7826;49.784;9.934;2023-03-13T00:06:26;3.90;;;1.90;;
15449;SDS011;7826;49.784;9.934;2023-03-13T00:08:56;7.10;;;1.97;;
15449;SDS011;7826;49.784;9.934;2023-03-13T00:11:25;8.40;;;2.03;;
15449;SDS011;7826;49.784;9.934;2023-03-13T00:13:55;3.60;;;1.63;;
15449;SDS011;7826;49.784;9.934;2023-03-13T00:16:22;5.83;;;2.10;;
15449;SDS011;7826;49.784;9.934;2023-03-13T00:18:50;4.63;;;1.80;;
15449;SDS011;7826;49.784;9.934;2023-03-13T00:21:18;4.40;;;1.90;;
15449;SDS011;7826;49.784;9.934;2023-03-13T00:23:45;4.23;;;2.07;;
15449;SDS011;7826;49.784;9.934;2023-03-13T00:26:13;2.53;;;1.57;;
15449;SDS011;7826;49.784;9.934;2023-03-13T00:28:42;6.10;;;2.00;;
15449;SDS011;7826;49.784;9.934;2023-03-13T00:33:40;7.00;;;2.20;;
15449;SDS011;7826;49.784;9.934;2023-03-13T00:36:12;5.40;;;1.90;;
15449;SDS011;7826;49.784;9.934;2023-03-13T00:38:50;5.97;;;2.07;;
15449;SDS011;7826;49.784;9.934;2023-03-13T00:41:18;6.37;;;1.87;;
15449;SDS011;7826;49.784;9.934;2023-03-13T00:43:46;6.13;;;1.53;;
15449;SDS011;7826;49.784;9.934;2023-03-13T00:46:14;5.07;;;1.73;;
15449;SDS011;7826;49.784;9.934;2023-03-13T00:48:41;2.67;;;1.60;;
15449;SDS011;7826;49.784;9.934;2023-03-13T00:51:08;2.60;;;1.93;;
15449;SDS011;7826;49.784;9.934;2023-03-13T00:53:34;4.27;;;1.50;;
15449;SDS011;7826;49.784;9.934;2023-03-13T00:58:29;4.00;;;1.33;;
15449;SDS011;7826;49.784;9.934;2023-03-13T01:01:05;1.67;;;1.50;;
15449;SDS011;7826;49.784;9.934;2023-03-13T01:03:36;4.20;;;1.40;;
15449;SDS011;7826;49.784;9.934;2023-03-13T01:06:03;6.67;;;1.97;;
15449;SDS011;7826;49.784;9.934;2023-03-13T01:08:31;7.20;;;1.70;;
15449;SDS011;7826;49.784;9.934;2023-03-13T01:11:01;3.90;;;1.67;;
15449;SDS011;7826;49.784;9.934;2023-03-13T01:13:32;1.67;;;1.50;;
15449;SDS011;7826;49.784;9.934;2023-03-13T01:16:03;3.40;;;1.43;;
15449;SDS011;7826;49.784;9.934;2023-03-13T01:18:30;3.37;;;1.60;;
15449;SDS011;7826;49.784;9.934;2023-03-13T01:20:58;2.30;;;1.30;;
15449;SDS011;7826;49.784;9.934;2023-03-13T01:23:24;3.43;;;1.20;;
15449;SDS011;7826;49.784;9.934;2023-03-13T01:25:52;6.57;;;1.70;;
15449;SDS011;7826;49.784;9.934;2023-03-13T01:28:19;6.60;;;1.70;;
15449;SDS011;7826;49.784;9.934;2023-03-13T01:30:46;3.60;;;1.73;;
15449;SDS011;7826;49.784;9.934;2023-03-13T01:33:12;5.27;;;1.63;;
15449;SDS011;7826;49.784;9.934;2023-03-13T01:35:39;2.80;;;1.63;;
15449;SDS011;7826;49.784;9.934;2023-03-13T01:38:05;3.60;;;1.40;;
15449;SDS011;7826;49.784;9.934;2023-03-13T01:40:37;4.20;;;1.30;;
15449;SDS011;7826;49.784;9.934;2023-03-13T01:43:20;2.60;;;1.67;;
15449;SDS011;7826;49.784;9.934;2023-03-13T01:48:54;4.50;;;1.40;;
15449;SDS011;7826;49.784;9.934;2023-03-13T01:51:26;4.30;;;1.70;;
15449;SDS011;7826;49.784;9.934;2023-03-13T01:54:06;2.90;;;1.50;;
15449;SDS011;7826;49.784;9.934;2023-03-13T01:56:35;4.87;;;1.50;;
15449;SDS011;7826;49.784;9.934;2023-03-13T01:59:05;6.33;;;1.63;;
15449;SDS011;7826;49.784;9.934;2023-03-13T02:01:34;3.37;;;1.37;;
15449;SDS011;7826;49.784;9.934;2023-03-13T02:04:00;3.53;;;1.60;;
15449;SDS011;7826;49.784;9.934;2023-03-13T02:06:27;4.77;;;1.73;;
15449;SDS011;7826;49.784;9.934;2023-03-13T02:08:57;3.40;;;1.70;;
15449;SDS011;7826;49.784;9.934;2023-03-13T02:14:02;2.73;;;1.50;;
15449;SDS011;7826;49.784;9.934;2023-03-13T02:16:30;2.80;;;1.40;;
15449;SDS011;7826;49.784;9.934;2023-03-13T02:18:58;3.07;;;1.20;;
15449;SDS011;7826;49.784;9.934;2023-03-13T02:24:12;5.57;;;1.30;;
15449;SDS011;7826;49.784;9.934;2023-03-13T02:26:42;2.37;;;1.20;;
15449;SDS011;7826;49.784;9.934;2023-03-13T02:29:08;2.67;;;1.30;;
15449;SDS011;7826;49.784;9.934;2023-03-13T02:31:43;4.80;;;1.30;;
15449;SDS011;7826;49.784;9.934;2023-03-13T02:34:13;2.93;;;1.50;;
15449;SDS011;7826;49.784;9.934;2023-03-13T02:36:45;4.07;;;1.30;;
15449;SDS011;7826;49.784;9.934;2023-03-13T02:39:12;3.27;;;1.47;;
15449;SDS011;7826;49.784;9.934;2023-03-13T02:41:42;4.50;;;1.77;;
15449;SDS011;7826;49.784;9.934;2023-03-13T02:44:10;3.80;;;1.67;;
15449;SDS011;7826;49.784;9.934;2023-03-13T02:46:47;1.97;;;1.23;;
15449;SDS011;7826;49.784;9.934;2023-03-13T02:49:23;4.53;;;1.67;;
15449;SDS011;7826;49.784;9.934;2023-03-13T02:51:52;3.80;;;1.63;;
15449;SDS011;7826;49.784;9.934;2023-03-13T02:54:29;5.40;;;2.10;;
15449;SDS011;7826;49.784;9.934;2023-03-13T02:56:59;1.50;;;1.40;;
15449;SDS011;7826;49.784;9.934;2023-03-13T02:59:28;7.00;;;2.20;;
15449;SDS011;7826;49.784;9.934;2023-03-13T03:01:55;4.70;;;1.63;;
15449;SDS011;7826;49.784;9.934;2023-03-13T03:04:22;3.13;;;1.30;;
15449;SDS011;7826;49.784;9.934;2023-03-13T03:06:50;0.97;;;0.97;;
15449;SDS011;7826;49.784;9.934;2023-03-13T03:09:17;3.60;;;1.10;;
15449;SDS011;7826;49.784;9.934;2023-03-13T03:11:44;2.80;;;1.13;;
15449;SDS011;7826;49.784;9.934;2023-03-13T03:14:11;2.40;;;1.47;;
15449;SDS011;7826;49.784;9.934;2023-03-13T03:16:38;4.10;;;1.53;;
15449;SDS011;7826;49.784;9.934;2023-03-13T03:19:04;3.80;;;1.30;;
15449;SDS011;7826;49.784;9.934;2023-03-13T03:21:31;3.20;;;1.30;;
15449;SDS011;7826;49.784;9.934;2023-03-13T03:23:59;3.63;;;1.37;;
15449;SDS011;7826;49.784;9.934;2023-03-13T03:26:26;2.17;;;1.17;;
15449;SDS011;7826;49.784;9.934;2023-03-13T03:28:52;1.93;;;1.20;;
15449;SDS011;7826;49.784;9.934;2023-03-13T03:31:18;5.27;;;2.20;;
15449;SDS011;7826;49.784;9.934;2023-03-13T03:33:45;4.33;;;1.23;;
15449;SDS011;7826;49.784;9.934;2023-03-13T03:36:12;3.33;;;1.10;;
15449;SDS011;7826;49.784;9.934;2023-03-13T03:38:47;2.97;;;1.63;;
15449;SDS011;7826;49.784;9.934;2023-03-13T03:41:13;4.67;;;1.20;;
15449;SDS011;7826;49.784;9.934;2023-03-13T03:43:40;3.60;;;1.63;;
15449;SDS011;7826;49.784;9.934;2023-03-13T03:46:06;4.30;;;1.30;;
15449;SDS011;7826;49.784;9.934;2023-03-13T03:48:33;3.37;;;1.53;;
15449;SDS011;7826;49.784;9.934;2023-03-13T03:51:02;5.00;;;1.53;;
15449;SDS011;7826;49.784;9.934;2023-03-13T03:53:36;5.90;;;1.50;;
15449;SDS011;7826;49.784;9.934;2023-03-13T03:56:02;1.93;;;1.60;;
15449;SDS011;7826;49.784;9.934;2023-03-13T03:58:29;3.00;;;1.20;;
15449;SDS011;7826;49.784;9.934;2023-03-13T04:00:56;2.93;;;1.20;;
15449;SDS011;7826;49.784;9.934;2023-03-13T04:03:23;2.63;;;1.23;;
15449;SDS011;7826;49.784;9.934;2023-03-13T04:05:50;3.70;;;1.20;;
15449;SDS011;7826;49.784;9.934;2023-03-13T04:08:17;2.40;;;1.60;;
15449;SDS011;7826;49.784;9.934;2023-03-13T04:10:44;3.80;;;1.50;;
15449;SDS011;7826;49.784;9.934;2023-03-13T04:13:11;3.87;;;1.73;;
15449;SDS011;7826;49.784;9.934;2023-03-13T04:15:38;4.17;;;1.97;;
15449;SDS011;7826;49.784;9.934;2023-03-13T04:18:05;7.90;;;1.93;;
15449;SDS011;7826;49.784;9.934;2023-03-13T04:20:49;3.93;;;1.33;;
15449;SDS011;7826;49.784;9.934;2023-03-13T04:23:15;3.00;;;1.97;;
15449;SDS011;7826;49.784;9.934;2023-03-13T04:25:42;5.43;;;1.67;;
15449;SDS011;7826;49.784;9.934;2023-03-13T04:28:08;8.00;;;1.90;;
15449;SDS011;7826;49.784;9.934;2023-03-13T04:30:34;3.70;;;2.00;;
15449;SDS011;7826;49.784;9.934;2023-03-13T04:33:01;3.30;;;1.57;;
15449;SDS011;7826;49.784;9.934;2023-03-13T04:35:27;4.93;;;1.80;;
15449;SDS011;7826;49.784;9.934;2023-03-13T04:37:54;3.37;;;1.43;;
15449;SDS011;7826;49.784;9.934;2023-03-13T04:40:20;4.10;;;1.30;;
15449;SDS011;7826;49.784;9.934;2023-03-13T04:42:46;2.40;;;1.60;;
15449;SDS011;7826;49.784;9.934;2023-03-13T04:45:13;5.47;;;1.40;;
15449;SDS011;7826;49.784;9.934;2023-03-13T04:47:39;4.00;;;1.50;;
15449;SDS011;7826;49.784;9.934;2023-03-13T04:50:05;1.83;;;1.23;;
15449;SDS011;7826;49.784;9.934;2023-03-13T04:52:32;4.03;;;1.47;;
15449;SDS011;7826;49.784;9.934;2023-03-13T04:54:58;3.53;;;1.73;;
15449;SDS011;7826;49.784;9.934;2023-03-13T04:57:25;3.60;;;1.57;;
15449;SDS011;7826;49.784;9.934;2023-03-13T04:59:51;4.10;;;1.37;;
15449;SDS011;7826;49.784;9.934;2023-03-13T05:02:17;1.70;;;1.30;;
15449;SDS011;7826;49.784;9.934;2023-03-13T05:04:43;6.97;;;1.20;;
15449;SDS011;7826;49.784;9.934;2023-03-13T05:07:10;2.70;;;1.20;;
15449;SDS011;7826;49.784;9.934;2023-03-13T05:09:36;4.50;;;1.40;;
15449;SDS011;7826;49.784;9.934;2023-03-13T05:12:02;2.27;;;1.30;;
15449;SDS011;7826;49.784;9.934;2023-03-13T05:14:29;2.83;;;1.53;;
15449;SDS011;7826;49.784;9.934;2023-03-13T05:16:55;2.80;;;1.03;;
15449;SDS011;7826;49.784;9.934;2023-03-13T05:19:22;2.00;;;1.70;;
15449;SDS011;7826;49.784;9.934;2023-03-13T05:21:48;2.13;;;1.10;;
15449;SDS011;7826;49.784;9.934;2023-03-13T05:24:14;1.43;;;1.30;;
15449;SDS011;7826;49.784;9.934;2023-03-13T05:26:41;0.90;;;0.90;;
15449;SDS011;7826;49.784;9.934;2023-03-13T05:29:07;2.47;;;1.23;;
15449;SDS011;7826;49.784;9.934;2023-03-13T05:31:33;2.90;;;1.03;;
15449;SDS011;7826;49.784;9.934;2023-03-13T05:33:59;3.67;;;1.33;;
15449;SDS011;7826;49.784;9.934;2023-03-13T05:36:26;1.00;;;0.90;;
15449;SDS011;7826;49.784;9.934;2023-03-13T05:38:52;1.60;;;1.03;;
15449;SDS011;7826;49.784;9.934;2023-03-13T05:41:18;1.97;;;1.30;;
15449;SDS011;7826;49.784;9.934;2023-03-13T05:43:47;2.90;;;1.00;;
15449;SDS011;7826;49.784;9.934;2023-03-13T05:46:14;1.37;;;0.90;;
15449;SDS011;7826;49.784;9.934;2023-03-13T05:48:40;2.23;;;1.10;;
15449;SDS011;7826;49.784;9.934;2023-03-13T05:51:06;1.93;;;0.97;;
15449;SDS011;7826;49.784;9.934;2023-03-13T05:53:32;2.93;;;1.03;;
15449;SDS011;7826;49.784;9.934;2023-03-13T05:55:59;2.47;;;1.00;;
15449;SDS011;7826;49.784;9.934;2023-03-13T05:58:25;1.13;;;0.93;;
15449;SDS011;7826;49.784;9.934;2023-03-13T06:00:51;1.50;;;1.07;;
15449;SDS011;7826;49.784;9.934;2023-03-13T06:03:20;4.33;;;1.00;;
15449;SDS011;7826;49.784;9.934;2023-03-13T06:05:47;2.30;;;1.10;;
15449;SDS011;7826;49.784;9.934;2023-03-13T06:08:13;1.93;;;0.90;;
15449;SDS011;7826;49.784;9.934;2023-03-13T06:10:39;2.33;;;1.30;;
15449;SDS011;7826;49.784;9.934;2023-03-13T06:13:06;1.93;;;1.10;;
15449;SDS011;7826;49.784;9.934;2023-03-13T06:15:32;2.47;;;1.17;;
15449;SDS011;7826;49.784;9.934;2023-03-13T06:17:59;4.73;;;1.20;;
15449;SDS011;7826;49.784;9.934;2023-03-13T06:20:25;1.40;;;0.90;;
15449;SDS011;7826;49.784;9.934;2023-03-13T06:22:51;1.23;;;1.13;;
15449;SDS011;7826;49.784;9.934;2023-03-13T06:25:18;2.20;;;1.00;;
15449;SDS011;7826;49.784;9.934;2023-03-13T06:27:44;3.70;;;1.20;;
15449;SDS011;7826;49.784;9.934;2023-03-13T06:30:11;2.50;;;1.20;;
15449;SDS011;7826;49.784;9.934;2023-03-13T06:32:37;3.73;;;1.10;;
15449;SDS011;7826;49.784;9.934;2023-03-13T06:35:04;2.10;;;1.10;;
15449;SDS011;7826;49.784;9.934;2023-03-13T06:37:30;1.20;;;1.20;;
15449;SDS011;7826;49.784;9.934;2023-03-13T06:39:57;2.07;;;0.80;;
15449;SDS011;7826;49.784;9.934;2023-03-13T06:42:23;1.07;;;0.90;;
15449;SDS011;7826;49.784;9.934;2023-03-13T06:44:49;2.17;;;1.20;;
15449;SDS011;7826;49.784;9.934;2023-03-13T06:47:16;1.13;;;1.03;;
15449;SDS011;7826;49.784;9.934;2023-03-13T06:49:42;0.90;;;0.90;;
15449;SDS011;7826;49.784;9.934;2023-03-13T06:52:08;3.80;;;1.03;;
15449;SDS011;7826;49.784;9.934;2023-03-13T06:54:34;0.90;;;0.90;;
15449;SDS011;7826;49.784;9.934;2023-03-13T06:57:00;0.90;;;0.90;;
15449;SDS011;7826;49.784;9.934;2023-03-13T06:59:26;4.50;;;1.07;;
15449;SDS011;7826;49.784;9.934;2023-03-13T07:01:53;0.80;;;0.80;;
15449;SDS011;7826;49.784;9.934;2023-03-13T07:04:19;1.00;;;0.90;;
15449;SDS011;7826;49.784;9.934;2023-03-13T07:06:45;3.77;;;0.93;;
15449;SDS011;7826;49.784;9.934;2023-03-13T07:09:11;2.10;;;0.80;;
15449;SDS011;7826;49.784;9.934;2023-03-13T07:11:38;1.40;;;0.90;;
15449;SDS011;7826;49.784;9.934;2023-03-13T07:14:04;1.47;;;1.10;;
15449;SDS011;7826;49.784;9.934;2023-03-13T07:16:30;2.00;;;0.90;;
15449;SDS011;7826;49.784;9.934;2023-03-13T07:18:56;1.23;;;1.10;;
15449;SDS011;7826;49.784;9.934;2023-03-13T07:21:23;0.83;;;0.83;;
15449;SDS011;7826;49.784;9.934;2023-03-13T07:23:49;0.83;;;0.63;;
15449;SDS011;7826;49.784;9.934;2023-03-13T07:26:15;3.27;;;1.10;;
15449;SDS011;7826;49.784;9.934;2023-03-13T07:28:42;1.80;;;0.77;;
15449;SDS011;7826;49.784;9.934;2023-03-13T07:31:12;1.73;;;1.00;;
15449;SDS011;7826;49.784;9.934;2023-03-13T07:33:40;1.67;;;1.00;;
15449;SDS011;7826;49.784;9.934;2023-03-13T07:36:07;1.30;;;1.03;;
15449;SDS011;7826;49.784;9.934;2023-03-13T07:38:34;0.97;;;0.97;;
15449;SDS011;7826;49.784;9.934;2023-03-13T07:41:00;2.80;;;1.00;;
15449;SDS011;7826;49.784;9.934;2023-03-13T07:43:27;1.00;;;0.90;;
15449;SDS011;7826;49.784;9.934;2023-03-13T07:48:22;2.03;;;1.13;;
15449;SDS011;7826;49.784;9.934;2023-03-13T07:50:49;3.00;;;1.30;;
15449;SDS011;7826;49.784;9.934;2023-03-13T07:53:16;1.17;;;1.07;;
15449;SDS011;7826;49.784;9.934;2023-03-13T07:58:21;1.13;;;1.03;;
15449;SDS011;7826;49.784;9.934;2023-03-13T08:00:49;1.20;;;1.10;;
15449;SDS011;7826;49.784;9.934;2023-03-13T08:03:16;1.33;;;1.00;;
15449;SDS011;7826;49.784;9.934;2023-03-13T08:05:43;0.97;;;0.97;;
15449;SDS011;7826;49.784;9.934;2023-03-13T08:08:09;3.03;;;1.00;;
15449;SDS011;7826;49.784;9.934;2023-03-13T08:10:35;1.40;;;1.03;;
15449;SDS011;7826;49.784;9.934;2023-03-13T08:13:02;1.30;;;1.10;;
15449;SDS011;7826;49.784;9.934;2023-03-13T08:15:29;3.50;;;0.90;;
15449;SDS011;7826;49.784;9.934;2023-03-13T08:17:55;1.23;;;1.07;;
15449;SDS011;7826;49.784;9.934;2023-03-13T08:20:22;1.00;;;0.90;;
15449;SDS011;7826;49.784;9.934;2023-03-13T08:22:48;1.10;;;0.83;;
15449;SDS011;7826;49.784;9.934;2023-03-13T08:25:15;1.00;;;1.00;;
15449;SDS011;7826;49.784;9.934;2023-03-13T08:27:41;1.00;;;1.00;;
15449;SDS011;7826;49.784;9.934;2023-03-13T08:30:08;1.20;;;1.10;;
15449;SDS011;7826;49.784;9.934;2023-03-13T08:32:35;1.10;;;1.10;;
15449;SDS011;7826;49.784;9.934;2023-03-13T08:35:02;1.10;;;1.10;;
15449;SDS011;7826;49.784;9.934;2023-03-13T08:37:29;2.83;;;1.00;;
15449;SDS011;7826;49.784;9.934;2023-03-13T08:39:55;0.90;;;0.90;;
15449;SDS011;7826;49.784;9.934;2023-03-13T08:42:22;1.23;;;0.80;;
15449;SDS011;7826;49.784;9.934;2023-03-13T08:44:48;0.93;;;0.93;;
15449;SDS011;7826;49.784;9.934;2023-03-13T08:47:14;1.10;;;1.10;;
15449;SDS011;7826;49.784;9.934;2023-03-13T08:49:43;0.90;;;0.90;;
15449;SDS011;7826;49.784;9.934;2023-03-13T08:52:09;1.10;;;1.00;;
15449;SDS011;7826;49.784;9.934;2023-03-13T08:54:35;0.97;;;0.97;;
15449;SDS011;7826;49.784;9.934;2023-03-13T08:57:02;1.10;;;1.10;;
15449;SDS011;7826;49.784;9.934;2023-03-13T08:59:28;1.10;;;1.10;;
15449;SDS011;7826;49.784;9.934;2023-03-13T09:01:54;0.97;;;0.97;;
15449;SDS011;7826;49.784;9.934;2023-03-13T09:04:20;3.33;;;1.20;;
15449;SDS011;7826;49.784;9.934;2023-03-13T09:06:47;1.40;;;1.30;;
15449;SDS011;7826;49.784;9.934;2023-03-13T09:09:13;0.87;;;0.80;;
15449;SDS011;7826;49.784;9.934;2023-03-13T09:11:39;1.00;;;1.00;;
15449;SDS011;7826;49.784;9.934;2023-03-13T09:14:06;1.90;;;1.17;;
15449;SDS011;7826;49.784;9.934;2023-03-13T09:16:33;1.10;;;1.10;;
15449;SDS011;7826;49.784;9.934;2023-03-13T09:18:59;2.70;;;1.30;;
15449;SDS011;7826;49.784;9.934;2023-03-13T09:21:30;1.00;;;1.00;;
15449;SDS011;7826;49.784;9.934;2023-03-13T09:23:57;1.97;;;1.13;;
15449;SDS011;7826;49.784;9.934;2023-03-13T09:26:24;1.33;;;1.10;;
15449;SDS011;7826;49.784;9.934;2023-03-13T09:28:51;1.10;;;1.00;;
15449;SDS011;7826;49.784;9.934;2023-03-13T09:31:19;1.20;;;1.20;;
15449;SDS011;7826;49.784;9.934;2023-03-13T09:33:47;2.17;;;1.27;;
15449;SDS011;7826;49.784;9.934;2023-03-13T09:36:14;1.50;;;1.40;;
15449;SDS011;7826;49.784;9.934;2023-03-13T09:38:41;1.60;;;1.10;;
15449;SDS011;7826;49.784;9.934;2023-03-13T09:52:23;1.03;;;1.00;;
15449;SDS011;7826;49.784;9.934;2023-03-13T09:54:53;1.40;;;1.30;;
15449;SDS011;7826;49.784;9.934;2023-03-13T10:03:16;1.20;;;1.20;;
15449;SDS011;7826;49.784;9.934;2023-03-13T10:05:51;1.20;;;1.10;;
15449;SDS011;7826;49.784;9.934;2023-03-13T10:08:24;1.00;;;1.00;;
15449;SDS011;7826;49.784;9.934;2023-03-13T10:16:08;1.17;;;1.10;;
15449;SDS011;7826;49.784;9.934;2023-03-13T10:18:37;1.10;;;1.10;;
15449;SDS011;7826;49.784;9.934;2023-03-13T10:21:13;1.00;;;1.00;;
15449;SDS011;7826;49.784;9.934;2023-03-13T10:26:34;0.90;;;0.90;;
15449;SDS011;7826;49.784;9.934;2023-03-13T10:29:13;1.10;;;1.00;;
15449;SDS011;7826;49.784;9.934;2023-03-13T10:31:41;0.90;;;0.90;;
15449;SDS011;7826;49.784;9.934;2023-03-13T10:34:15;0.80;;;0.80;;
15449;SDS011;7826;49.784;9.934;2023-03-13T10:36:43;1.57;;;1.47;;
15449;SDS011;7826;49.784;9.934;2023-03-13T10:39:18;1.40;;;1.00;;
15449;SDS011;7826;49.784;9.934;2023-03-13T10:41:49;1.47;;;1.20;;
15449;SDS011;7826;49.784;9.934;2023-03-13T10:44:21;0.90;;;0.90;;
15449;SDS011;7826;49.784;9.934;2023-03-13T10:46:57;1.10;;;1.10;;
15449;SDS011;7826;49.784;9.934;2023-03-13T10:49:27;1.43;;;1.23;;
15449;SDS011;7826;49.784;9.934;2023-03-13T10:52:03;0.80;;;0.80;;
15449;SDS011;7826;49.784;9.934;2023-03-13T10:54:33;0.83;;;0.83;;
15449;SDS011;7826;49.784;9.934;2023-03-13T10:59:48;0.93;;;0.90;;
15449;SDS011;7826;49.784;9.934;2023-03-13T11:04:45;1.47;;;1.10;;
15449;SDS011;7826;49.784;9.934;2023-03-13T11:07:20;0.87;;;0.87;;
15449;SDS011;7826;49.784;9.934;2023-03-13T11:12:42;1.20;;;1.10;;
15449;SDS011;7826;49.784;9.934;2023-03-13T11:15:12;1.00;;;1.00;;
15449;SDS011;7826;49.784;9.934;2023-03-13T11:17:41;1.30;;;1.20;;
15449;SDS011;7826;49.784;9.934;2023-03-13T11:23:19;1.20;;;1.10;;
15449;SDS011;7826;49.784;9.934;2023-03-13T11:28:54;1.10;;;1.10;;
15449;SDS011;7826;49.784;9.934;2023-03-13T11:34:04;1.77;;;1.30;;
15449;SDS011;7826;49.784;9.934;2023-03-13T11:36:39;1.73;;;1.10;;
15449;SDS011;7826;49.784;9.934;2023-03-13T11:39:29;1.10;;;1.10;;
15449;SDS011;7826;49.784;9.934;2023-03-13T11:42:52;1.50;;;1.40;;
15449;SDS011;7826;49.784;9.934;2023-03-13T11:48:07;1.40;;;1.30;;
15449;SDS011;7826;49.784;9.934;2023-03-13T11:58:59;2.90;;;1.10;;
15449;SDS011;7826;49.784;9.934;2023-03-13T12:01:48;1.00;;;0.90;;
15449;SDS011;7826;49.784;9.934;2023-03-13T12:04:21;1.33;;;1.20;;
15449;SDS011;7826;49.784;9.934;2023-03-13T12:06:58;2.70;;;1.20;;
15449;SDS011;7826;49.784;9.934;2023-03-13T12:10:02;1.40;;;1.20;;
15449;SDS011;7826;49.784;9.934;2023-03-13T12:17:52;1.27;;;1.17;;
15449;SDS011;7826;49.784;9.934;2023-03-13T12:20:41;1.47;;;1.37;;
15449;SDS011;7826;49.784;9.934;2023-03-13T12:26:15;1.63;;;1.20;;
15449;SDS011;7826;49.784;9.934;2023-03-13T12:31:46;1.30;;;1.20;;
15449;SDS011;7826;49.784;9.934;2023-03-13T12:36:57;1.10;;;1.10;;
15449;SDS011;7826;49.784;9.934;2023-03-13T12:39:44;1.17;;;1.10;;
15449;SDS011;7826;49.784;9.934;2023-03-13T12:45:09;1.33;;;1.23;;
15449;SDS011;7826;49.784;9.934;2023-03-13T12:59:33;1.30;;;1.20;;
15449;SDS011;7826;49.784;9.934;2023-03-13T13:02:13;1.03;;;0.97;;
15449;SDS011;7826;49.784;9.934;2023-03-13T13:04:46;1.30;;;1.20;;
15449;SDS011;7826;49.784;9.934;2023-03-13T13:12:36;1.37;;;1.17;;
15449;SDS011;7826;49.784;9.934;2023-03-13T13:18:28;1.23;;;1.20;;
15449;SDS011;7826;49.784;9.934;2023-03-13T13:21:17;1.10;;;1.00;;
15449;SDS011;7826;49.784;9.934;2023-03-13T13:23:42;1.53;;;1.10;;
15449;SDS011;7826;49.784;9.934;2023-03-13T13:28:51;5.37;;;1.10;;
15449;SDS011;7826;49.784;9.934;2023-03-13T13:37:00;1.47;;;1.37;;
15449;SDS011;7826;49.784;9.934;2023-03-13T13:39:34;1.27;;;1.20;;
15449;SDS011;7826;49.784;9.934;2023-03-13T13:42:49;1.30;;;1.20;;
15449;SDS011;7826;49.784;9.934;2023-03-13T13:47:23;1.10;;;1.10;;
15449;SDS011;7826;49.784;9.934;2023-03-13T13:49:53;2.17;;;1.27;;
15449;SDS011;7826;49.784;9.934;2023-03-13T13:57:57;0.90;;;0.90;;
15449;SDS011;7826;49.784;9.934;2023-03-13T14:00:34;1.43;;;1.33;;
15449;SDS011;7826;49.784;9.934;2023-03-13T14:05:46;1.30;;;1.20;;
15449;SDS011;7826;49.784;9.934;2023-03-13T14:08:22;0.97;;;0.97;;
15449;SDS011;7826;49.784;9.934;2023-03-13T14:14:12;1.10;;;1.10;;
15449;SDS011;7826;49.784;9.934;2023-03-13T14:16:44;1.10;;;1.10;;
15449;SDS011;7826;49.784;9.934;2023-03-13T14:19:47;1.30;;;1.20;;
15449;SDS011;7826;49.784;9.934;2023-03-13T14:22:07;1.60;;;1.50;;
15449;SDS011;7826;49.784;9.934;2023-03-13T14:24:35;1.27;;;1.20;;
15449;SDS011;7826;49.784;9.934;2023-03-13T14:27:23;1.30;;;1.20;;
15449;SDS011;7826;49.784;9.934;2023-03-13T14:29:58;1.40;;;1.10;;
15449;SDS011;7826;49.784;9.934;2023-03-13T14:32:25;2.23;;;1.10;;
15449;SDS011;7826;49.784;9.934;2023-03-13T14:34:52;1.33;;;0.90;;
15449;SDS011;7826;49.784;9.934;2023-03-13T14:37:32;1.27;;;1.00;;
15449;SDS011;7826;49.784;9.934;2023-03-13T14:42:53;1.13;;;1.00;;
15449;SDS011;7826;49.784;9.934;2023-03-13T14:45:32;1.20;;;1.10;;
15449;SDS011;7826;49.784;9.934;2023-03-13T14:48:00;1.67;;;1.00;;
15449;SDS011;7826;49.784;9.934;2023-03-13T14:50:27;1.80;;;1.10;;
15449;SDS011;7826;49.784;9.934;2023-03-13T14:53:03;1.50;;;1.00;;
15449;SDS011;7826;49.784;9.934;2023-03-13T14:55:44;1.13;;;1.13;;
15449;SDS011;7826;49.784;9.934;2023-03-13T14:58:24;1.27;;;1.10;;
15449;SDS011;7826;49.784;9.934;2023-03-13T15:00:55;1.20;;;1.10;;
15449;SDS011;7826;49.784;9.934;2023-03-13T15:03:26;1.00;;;0.90;;
15449;SDS011;7826;49.784;9.934;2023-03-13T15:08:38;1.17;;;1.10;;
15449;SDS011;7826;49.784;9.934;2023-03-13T15:11:42;4.03;;;1.20;;
15449;SDS011;7826;49.784;9.934;2023-03-13T15:14:29;1.30;;;1.20;;
15449;SDS011;7826;49.784;9.934;2023-03-13T15:16:54;1.20;;;1.20;;
15449;SDS011;7826;49.784;9.934;2023-03-13T15:19:21;1.60;;;1.10;;
15449;SDS011;7826;49.784;9.934;2023-03-13T15:21:49;1.07;;;1.07;;
15449;SDS011;7826;49.784;9.934;2023-03-13T15:24:16;1.13;;;1.13;;
15449;SDS011;7826;49.784;9.934;2023-03-13T15:26:43;2.03;;;1.30;;
15449;SDS011;7826;49.784;9.934;2023-03-13T15:29:09;2.00;;;1.30;;
15449;SDS011;7826;49.784;9.934;2023-03-13T15:31:36;1.13;;;1.10;;
15449;SDS011;7826;49.784;9.934;2023-03-13T15:34:02;1.20;;;1.20;;
15449;SDS011;7826;49.784;9.934;2023-03-13T15:36:29;0.90;;;0.90;;
15449;SDS011;7826;49.784;9.934;2023-03-13T15:38:56;0.90;;;0.90;;
15449;SDS011;7826;49.784;9.934;2023-03-13T15:41:22;1.33;;;1.23;;
15449;SDS011;7826;49.784;9.934;2023-03-13T15:43:48;2.20;;;1.20;;
15449;SDS011;7826;49.784;9.934;2023-03-13T15:46:19;1.53;;;1.10;;
15449;SDS011;7826;49.784;9.934;2023-03-13T15:48:46;2.63;;;1.47;;
15449;SDS011;7826;49.784;9.934;2023-03-13T15:51:14;1.27;;;1.17;;
15449;SDS011;7826;49.784;9.934;2023-03-13T15:53:41;1.23;;;1.13;;
15449;SDS011;7826;49.784;9.934;2023-03-13T15:56:18;1.40;;;1.30;;
15449;SDS011;7826;49.784;9.934;2023-03-13T15:58:47;1.00;;;1.00;;
15449;SDS011;7826;49.784;9.934;2023-03-13T16:01:15;0.90;;;0.90;;
15449;SDS011;7826;49.784;9.934;2023-03-13T16:03:42;1.10;;;1.00;;
15449;SDS011;7826;49.784;9.934;2023-03-13T16:06:12;1.20;;;1.10;;
15449;SDS011;7826;49.784;9.934;2023-03-13T16:08:41;1.00;;;1.00;;
15449;SDS011;7826;49.784;9.934;2023-03-13T16:11:08;1.50;;;1.00;;
15449;SDS011;7826;49.784;9.934;2023-03-13T16:13:36;1.30;;;1.20;;
15449;SDS011;7826;49.784;9.934;2023-03-13T16:16:08;0.80;;;0.80;;
15449;SDS011;7826;49.784;9.934;2023-03-13T16:18:45;1.27;;;1.17;;
15449;SDS011;7826;49.784;9.934;2023-03-13T16:21:14;1.10;;;1.10;;
15449;SDS011;7826;49.784;9.934;2023-03-13T16:23:53;0.97;;;0.97;;
15449;SDS011;7826;49.784;9.934;2023-03-13T16:26:24;1.43;;;1.10;;
15449;SDS011;7826;49.784;9.934;2023-03-13T16:28:53;1.30;;;1.20;;
15449;SDS011;7826;49.784;9.934;2023-03-13T16:31:20;1.30;;;1.20;;
15449;SDS011;7826;49.784;9.934;2023-03-13T16:33:52;1.10;;;1.00;;
15449;SDS011;7826;49.784;9.934;2023-03-13T16:36:20;1.10;;;1.10;;
15449;SDS011;7826;49.784;9.934;2023-03-13T16:38:48;1.37;;;1.23;;
15449;SDS011;7826;49.784;9.934;2023-03-13T16:41:16;1.63;;;1.10;;
15449;SDS011;7826;49.784;9.934;2023-03-13T16:43:46;1.30;;;1.30;;
15449;SDS011;7826;49.784;9.934;2023-03-13T16:46:20;1.17;;;1.10;;
15449;SDS011;7826;49.784;9.934;2023-03-13T16:48:48;1.40;;;1.30;;
15449;SDS011;7826;49.784;9.934;2023-03-13T16:51:17;1.40;;;1.30;;
15449;SDS011;7826;49.784;9.934;2023-03-13T16:53:44;1.40;;;1.30;;
15449;SDS011;7826;49.784;9.934;2023-03-13T16:56:17;1.10;;;1.10;;
15449;SDS011;7826;49.784;9.934;2023-03-13T16:58:50;1.03;;;1.03;;
15449;SDS011;7826;49.784;9.934;2023-03-13T17:01:17;1.30;;;0.90;;
15449;SDS011;7826;49.784;9.934;2023-03-13T17:03:44;0.80;;;0.80;;
15449;SDS011;7826;49.784;9.934;2023-03-13T17:06:12;1.50;;;0.70;;
15449;SDS011;7826;49.784;9.934;2023-03-13T17:08:59;1.50;;;0.80;;
15449;SDS011;7826;49.784;9.934;2023-03-13T17:11:29;1.20;;;0.80;;
15449;SDS011;7826;49.784;9.934;2023-03-13T17:13:55;0.63;;;0.63;;
15449;SDS011;7826;49.784;9.934;2023-03-13T17:16:24;5.50;;;0.97;;
15449;SDS011;7826;49.784;9.934;2023-03-13T17:18:55;1.33;;;0.83;;
15449;SDS011;7826;49.784;9.934;2023-03-13T17:21:23;1.03;;;0.70;;
15449;SDS011;7826;49.784;9.934;2023-03-13T17:23:51;0.90;;;0.90;;
15449;SDS011;7826;49.784;9.934;2023-03-13T17:28:44;1.07;;;0.93;;
15449;SDS011;7826;49.784;9.934;2023-03-13T17:31:11;0.80;;;0.80;;
15449;SDS011;7826;49.784;9.934;2023-03-13T17:33:38;1.63;;;0.90;;